TVS14P EDDH-LKPR
Flight info
| Callsign | TVS14P |
|---|---|
| Flight time | 1h 5m |
| Altitude | 35000 |
| Route | RAMAR6G RAMAR Z998 OSKAN M748 HDO DCT GOLOP |
| Aircraft | B738/M-SDE2E3FGHIRWXY/LB1 |
Departure
| Time | 2026-04-22 17:53 |
|---|---|
| Airport | Hamburg Helmut Schmidt Airport (EDDH) |
Arrival
| Time | 2026-04-22 18:58 |
|---|---|
| Airport | Václav Havel Airport Prague (LKPR) |
| Time | Latitude | Longitude | Altitude | Speed | Heading |
|---|---|---|---|---|---|
| 2026-04-22 17:25 | 53.62809 | 10.00245 | 48 ft | 0 kts | 63° |
| 2026-04-22 17:42 | 53.62808 | 10.00243 | 47 ft | 2 kts | 63° |
| 2026-04-22 17:42 | 53.62796 | 10.00206 | 45 ft | 4 kts | 54° |
| 2026-04-22 17:42 | 53.62779 | 10.00173 | 45 ft | 4 kts | 37° |
| 2026-04-22 17:42 | 53.62757 | 10.00155 | 46 ft | 4 kts | 359° |
| 2026-04-22 17:43 | 53.62742 | 10.00160 | 45 ft | 1 kts | 333° |
| 2026-04-22 17:43 | 53.62741 | 10.00162 | 45 ft | 0 kts | 333° |
| 2026-04-22 17:46 | 53.62748 | 10.00155 | 46 ft | 4 kts | 333° |
| 2026-04-22 17:47 | 53.62784 | 10.00124 | 46 ft | 6 kts | 333° |
| 2026-04-22 17:47 | 53.62822 | 10.00092 | 47 ft | 6 kts | 333° |
| 2026-04-22 17:47 | 53.62846 | 10.00055 | 47 ft | 2 kts | 302° |
| 2026-04-22 17:47 | 53.62848 | 10.00050 | 47 ft | 0 kts | 298° |
| 2026-04-22 17:48 | 53.62849 | 10.00046 | 47 ft | 1 kts | 296° |
| 2026-04-22 17:48 | 53.62852 | 10.00008 | 47 ft | 5 kts | 268° |
| 2026-04-22 17:48 | 53.62843 | 9.99955 | 47 ft | 1 kts | 245° |
| 2026-04-22 17:49 | 53.62843 | 9.99954 | 47 ft | 0 kts | 245° |
| 2026-04-22 17:51 | 53.62841 | 9.99947 | 47 ft | 2 kts | 245° |
| 2026-04-22 17:51 | 53.62826 | 9.99892 | 45 ft | 8 kts | 245° |
| 2026-04-22 17:51 | 53.62826 | 9.99789 | 43 ft | 9 kts | 308° |
| 2026-04-22 17:52 | 53.62869 | 9.99744 | 44 ft | 6 kts | 333° |
| 2026-04-22 17:52 | 53.62904 | 9.99714 | 44 ft | 6 kts | 333° |
| 2026-04-22 17:52 | 53.62993 | 9.99637 | 43 ft | 39 kts | 333° |
| 2026-04-22 17:52 | 53.63465 | 9.99229 | 46 ft | 111 kts | 333° |
| 2026-04-22 17:53 | 53.64314 | 9.98498 | 129 ft | 160 kts | 329° |
| 2026-04-22 17:53 | 53.65305 | 9.97646 | 924 ft | 161 kts | 330° |
| 2026-04-22 17:53 | 53.66321 | 9.96778 | 1716 ft | 167 kts | 332° |
| 2026-04-22 17:53 | 53.67438 | 9.95821 | 2157 ft | 191 kts | 333° |
| 2026-04-22 17:54 | 53.68668 | 9.94831 | 2678 ft | 201 kts | 341° |
| 2026-04-22 17:54 | 53.70079 | 9.94663 | 3300 ft | 206 kts | 359° |
| 2026-04-22 17:54 | 53.71511 | 9.94684 | 3985 ft | 206 kts | 358° |
| 2026-04-22 17:54 | 53.72932 | 9.95059 | 4603 ft | 212 kts | 22° |
| 2026-04-22 17:55 | 53.74076 | 9.96735 | 5001 ft | 232 kts | 54° |
| 2026-04-22 17:55 | 53.74847 | 9.99192 | 5471 ft | 240 kts | 60° |
| 2026-04-22 17:55 | 53.75583 | 10.01757 | 6013 ft | 244 kts | 61° |
| 2026-04-22 17:55 | 53.76310 | 10.04317 | 6604 ft | 245 kts | 61° |
| 2026-04-22 17:56 | 53.77051 | 10.06922 | 7166 ft | 247 kts | 61° |
| 2026-04-22 17:56 | 53.77800 | 10.09546 | 7715 ft | 249 kts | 61° |
| 2026-04-22 17:56 | 53.78391 | 10.12303 | 8235 ft | 256 kts | 82° |
| 2026-04-22 17:56 | 53.78042 | 10.15269 | 8785 ft | 264 kts | 112° |
| 2026-04-22 17:57 | 53.77095 | 10.17947 | 9310 ft | 268 kts | 121° |
| 2026-04-22 17:57 | 53.76031 | 10.20559 | 9827 ft | 271 kts | 122° |
| 2026-04-22 17:57 | 53.74944 | 10.23163 | 10353 ft | 273 kts | 122° |
| 2026-04-22 17:57 | 53.73846 | 10.25788 | 10839 ft | 274 kts | 122° |
| 2026-04-22 17:58 | 53.72749 | 10.28424 | 11357 ft | 274 kts | 122° |
| 2026-04-22 17:58 | 53.71669 | 10.31031 | 11863 ft | 275 kts | 122° |
| 2026-04-22 17:58 | 53.70573 | 10.33685 | 12387 ft | 276 kts | 122° |
| 2026-04-22 17:58 | 53.69474 | 10.36353 | 12918 ft | 277 kts | 121° |
| 2026-04-22 17:59 | 53.68373 | 10.39031 | 13421 ft | 278 kts | 121° |
| 2026-04-22 17:59 | 53.67269 | 10.41715 | 13965 ft | 280 kts | 121° |
| 2026-04-22 17:59 | 53.66159 | 10.44415 | 14468 ft | 281 kts | 121° |
| 2026-04-22 17:59 | 53.65043 | 10.47129 | 14944 ft | 283 kts | 121° |
| 2026-04-22 18:00 | 53.64300 | 10.48935 | 15252 ft | 284 kts | 121° |
| 2026-04-22 18:00 | 53.62786 | 10.52613 | 15895 ft | 287 kts | 122° |
| 2026-04-22 18:00 | 53.61661 | 10.55344 | 16360 ft | 289 kts | 122° |
| 2026-04-22 18:00 | 53.60510 | 10.58133 | 16836 ft | 291 kts | 122° |
| 2026-04-22 18:01 | 53.59355 | 10.60932 | 17294 ft | 293 kts | 122° |
| 2026-04-22 18:01 | 53.58186 | 10.63758 | 17773 ft | 295 kts | 122° |
| 2026-04-22 18:01 | 53.57009 | 10.66603 | 18214 ft | 297 kts | 122° |
| 2026-04-22 18:01 | 53.55824 | 10.69464 | 18652 ft | 299 kts | 122° |
| 2026-04-22 18:02 | 53.54632 | 10.72337 | 19050 ft | 300 kts | 122° |
| 2026-04-22 18:02 | 53.53435 | 10.75221 | 19462 ft | 301 kts | 122° |
| 2026-04-22 18:02 | 53.52234 | 10.78109 | 19857 ft | 302 kts | 122° |
| 2026-04-22 18:02 | 53.51027 | 10.81009 | 20252 ft | 303 kts | 123° |
| 2026-04-22 18:03 | 53.49817 | 10.83914 | 20640 ft | 304 kts | 123° |
| 2026-04-22 18:03 | 53.48617 | 10.86790 | 21028 ft | 305 kts | 123° |
| 2026-04-22 18:03 | 53.47381 | 10.89751 | 21404 ft | 306 kts | 123° |
| 2026-04-22 18:03 | 53.46173 | 10.92640 | 21775 ft | 307 kts | 123° |
| 2026-04-22 18:04 | 53.44944 | 10.95576 | 22146 ft | 308 kts | 123° |
| 2026-04-22 18:04 | 53.43712 | 10.98518 | 22497 ft | 309 kts | 123° |
| 2026-04-22 18:04 | 53.42474 | 11.01469 | 22853 ft | 310 kts | 123° |
| 2026-04-22 18:04 | 53.41232 | 11.04426 | 23197 ft | 311 kts | 123° |
| 2026-04-22 18:05 | 53.39977 | 11.07411 | 23281 ft | 317 kts | 123° |
| 2026-04-22 18:05 | 53.38708 | 11.10426 | 23292 ft | 316 kts | 123° |
| 2026-04-22 18:05 | 53.37445 | 11.13422 | 23280 ft | 313 kts | 123° |
| 2026-04-22 18:05 | 53.36196 | 11.16380 | 23279 ft | 310 kts | 123° |
| 2026-04-22 18:06 | 53.34950 | 11.19330 | 23297 ft | 311 kts | 123° |
| 2026-04-22 18:06 | 53.33713 | 11.22255 | 23296 ft | 312 kts | 123° |
| 2026-04-22 18:06 | 53.32458 | 11.25222 | 23293 ft | 313 kts | 123° |
| 2026-04-22 18:06 | 53.31198 | 11.28196 | 23295 ft | 314 kts | 123° |
| 2026-04-22 18:07 | 53.29935 | 11.31174 | 23294 ft | 314 kts | 123° |
| 2026-04-22 18:07 | 53.28667 | 11.34156 | 23296 ft | 315 kts | 123° |
| 2026-04-22 18:07 | 53.27398 | 11.37137 | 23289 ft | 315 kts | 123° |
| 2026-04-22 18:07 | 53.26006 | 11.39962 | 23284 ft | 316 kts | 133° |
| 2026-04-22 18:08 | 53.24400 | 11.42476 | 23296 ft | 316 kts | 135° |
| 2026-04-22 18:08 | 53.22767 | 11.44937 | 23286 ft | 316 kts | 135° |
| 2026-04-22 18:08 | 53.21157 | 11.47361 | 23290 ft | 316 kts | 135° |
| 2026-04-22 18:08 | 53.19534 | 11.49825 | 23288 ft | 315 kts | 135° |
| 2026-04-22 18:09 | 53.17913 | 11.52301 | 23348 ft | 318 kts | 135° |
| 2026-04-22 18:09 | 53.16277 | 11.54803 | 23692 ft | 318 kts | 135° |
| 2026-04-22 18:09 | 53.14651 | 11.57287 | 24069 ft | 316 kts | 135° |
| 2026-04-22 18:09 | 53.13033 | 11.59761 | 24379 ft | 316 kts | 135° |
| 2026-04-22 18:10 | 53.11412 | 11.62238 | 24660 ft | 316 kts | 134° |
| 2026-04-22 18:10 | 53.09792 | 11.64713 | 24938 ft | 316 kts | 134° |
| 2026-04-22 18:10 | 53.08171 | 11.67188 | 25211 ft | 316 kts | 134° |
| 2026-04-22 18:10 | 53.06549 | 11.69660 | 25478 ft | 317 kts | 134° |
| 2026-04-22 18:11 | 53.04922 | 11.72139 | 25739 ft | 317 kts | 134° |
| 2026-04-22 18:11 | 53.03297 | 11.74614 | 25993 ft | 317 kts | 134° |
| 2026-04-22 18:11 | 53.01689 | 11.77057 | 26234 ft | 318 kts | 134° |
| 2026-04-22 18:11 | 53.00057 | 11.79532 | 26475 ft | 318 kts | 134° |
| 2026-04-22 18:12 | 52.98505 | 11.82136 | 26701 ft | 316 kts | 126° |
| 2026-04-22 18:12 | 52.97164 | 11.85011 | 26921 ft | 315 kts | 123° |
| 2026-04-22 18:12 | 52.96277 | 11.86980 | 27074 ft | 315 kts | 123° |
| 2026-04-22 18:12 | 52.94539 | 11.90846 | 27371 ft | 316 kts | 123° |
| 2026-04-22 18:13 | 52.93222 | 11.93758 | 27587 ft | 316 kts | 123° |
| 2026-04-22 18:13 | 52.91895 | 11.96672 | 27797 ft | 317 kts | 123° |
| 2026-04-22 18:13 | 52.90566 | 11.99580 | 27994 ft | 317 kts | 123° |
| 2026-04-22 18:13 | 52.89229 | 12.02493 | 28196 ft | 318 kts | 123° |
| 2026-04-22 18:14 | 52.87891 | 12.05403 | 28385 ft | 318 kts | 123° |
| 2026-04-22 18:14 | 52.86549 | 12.08320 | 28572 ft | 319 kts | 123° |
| 2026-04-22 18:14 | 52.85205 | 12.11241 | 28752 ft | 319 kts | 123° |
| 2026-04-22 18:14 | 52.83861 | 12.14162 | 28942 ft | 319 kts | 123° |
| 2026-04-22 18:15 | 52.82534 | 12.17042 | 29091 ft | 320 kts | 123° |
| 2026-04-22 18:15 | 52.81184 | 12.19969 | 29259 ft | 320 kts | 123° |
| 2026-04-22 18:15 | 52.79831 | 12.22901 | 29423 ft | 321 kts | 123° |
| 2026-04-22 18:15 | 52.78477 | 12.25831 | 29564 ft | 321 kts | 123° |
| 2026-04-22 18:16 | 52.77118 | 12.28770 | 29715 ft | 322 kts | 123° |
| 2026-04-22 18:16 | 52.75758 | 12.31708 | 29847 ft | 322 kts | 123° |
| 2026-04-22 18:16 | 52.74396 | 12.34647 | 29979 ft | 323 kts | 123° |
| 2026-04-22 18:16 | 52.73030 | 12.37589 | 30116 ft | 323 kts | 123° |
| 2026-04-22 18:17 | 52.71669 | 12.40484 | 30247 ft | 325 kts | 126° |
| 2026-04-22 18:17 | 52.68199 | 12.45381 | 30451 ft | 335 kts | 142° |
| 2026-04-22 18:18 | 52.64187 | 12.49344 | 30638 ft | 337 kts | 143° |
| 2026-04-22 18:18 | 52.60127 | 12.53327 | 30337 ft | 341 kts | 141° |
| 2026-04-22 18:18 | 52.58164 | 12.55487 | 30079 ft | 338 kts | 140° |
| 2026-04-22 18:19 | 52.56249 | 12.57695 | 29816 ft | 335 kts | 139° |
| 2026-04-22 18:19 | 52.54345 | 12.59916 | 29567 ft | 337 kts | 139° |
| 2026-04-22 18:19 | 52.52432 | 12.62145 | 29315 ft | 338 kts | 139° |
| 2026-04-22 18:19 | 52.50536 | 12.64341 | 29163 ft | 335 kts | 140° |
| 2026-04-22 18:20 | 52.48638 | 12.66525 | 28922 ft | 331 kts | 140° |
| 2026-04-22 18:20 | 52.46763 | 12.68673 | 28696 ft | 328 kts | 140° |
| 2026-04-22 18:20 | 52.44886 | 12.70819 | 28406 ft | 330 kts | 140° |
| 2026-04-22 18:20 | 52.42997 | 12.72975 | 27987 ft | 330 kts | 140° |
| 2026-04-22 18:21 | 52.41116 | 12.75117 | 27591 ft | 329 kts | 140° |
| 2026-04-22 18:21 | 52.39237 | 12.77251 | 27193 ft | 329 kts | 140° |
| 2026-04-22 18:21 | 52.37362 | 12.79378 | 26809 ft | 328 kts | 140° |
| 2026-04-22 18:21 | 52.35486 | 12.81504 | 26430 ft | 327 kts | 141° |
| 2026-04-22 18:22 | 52.33619 | 12.83618 | 26047 ft | 326 kts | 141° |
| 2026-04-22 18:22 | 52.31756 | 12.85723 | 25670 ft | 325 kts | 141° |
| 2026-04-22 18:22 | 52.29909 | 12.87808 | 25414 ft | 320 kts | 141° |
| 2026-04-22 18:22 | 52.28076 | 12.89874 | 25315 ft | 320 kts | 141° |
| 2026-04-22 18:23 | 52.26268 | 12.91912 | 25276 ft | 321 kts | 141° |
| 2026-04-22 18:23 | 52.24432 | 12.93980 | 25268 ft | 320 kts | 141° |
| 2026-04-22 18:23 | 52.22600 | 12.96041 | 25267 ft | 321 kts | 141° |
| 2026-04-22 18:24 | 52.18893 | 13.00208 | 25251 ft | 331 kts | 141° |
| 2026-04-22 18:24 | 52.16960 | 13.02382 | 25239 ft | 346 kts | 141° |
| 2026-04-22 18:24 | 52.12826 | 13.07022 | 25290 ft | 376 kts | 141° |
| 2026-04-22 18:25 | 52.10632 | 13.09477 | 25283 ft | 390 kts | 142° |
| 2026-04-22 18:25 | 52.08388 | 13.11982 | 25279 ft | 403 kts | 142° |
| 2026-04-22 18:25 | 52.06047 | 13.14591 | 25282 ft | 413 kts | 142° |
| 2026-04-22 18:26 | 52.01272 | 13.19889 | 25260 ft | 414 kts | 142° |
| 2026-04-22 18:26 | 51.98895 | 13.22520 | 25258 ft | 412 kts | 142° |
| 2026-04-22 18:26 | 51.96529 | 13.25137 | 25260 ft | 411 kts | 142° |
| 2026-04-22 18:26 | 51.94168 | 13.27749 | 25261 ft | 410 kts | 142° |
| 2026-04-22 18:27 | 51.91817 | 13.30347 | 25264 ft | 409 kts | 142° |
| 2026-04-22 18:27 | 51.89462 | 13.32946 | 25266 ft | 409 kts | 142° |
| 2026-04-22 18:27 | 51.87113 | 13.35537 | 25270 ft | 409 kts | 142° |
| 2026-04-22 18:27 | 51.84789 | 13.38098 | 25270 ft | 410 kts | 142° |
| 2026-04-22 18:28 | 51.82433 | 13.40691 | 25269 ft | 410 kts | 142° |
| 2026-04-22 18:28 | 51.80071 | 13.43286 | 25264 ft | 411 kts | 142° |
| 2026-04-22 18:28 | 51.77710 | 13.45877 | 25266 ft | 411 kts | 142° |
| 2026-04-22 18:28 | 51.75343 | 13.48471 | 25267 ft | 411 kts | 142° |
| 2026-04-22 18:29 | 51.72972 | 13.51066 | 25271 ft | 412 kts | 142° |
| 2026-04-22 18:29 | 51.70600 | 13.53658 | 25266 ft | 412 kts | 142° |
| 2026-04-22 18:29 | 51.68230 | 13.56245 | 25269 ft | 412 kts | 142° |
| 2026-04-22 18:29 | 51.65853 | 13.58835 | 25269 ft | 412 kts | 142° |
| 2026-04-22 18:30 | 51.63484 | 13.61415 | 25267 ft | 411 kts | 142° |
| 2026-04-22 18:30 | 51.58778 | 13.66527 | 25263 ft | 411 kts | 142° |
| 2026-04-22 18:30 | 51.56403 | 13.69104 | 25264 ft | 411 kts | 142° |
| 2026-04-22 18:31 | 51.54034 | 13.71669 | 25265 ft | 411 kts | 142° |
| 2026-04-22 18:31 | 51.51665 | 13.74232 | 25265 ft | 410 kts | 142° |
| 2026-04-22 18:31 | 51.49299 | 13.76789 | 25262 ft | 410 kts | 142° |
| 2026-04-22 18:31 | 51.46928 | 13.79348 | 25265 ft | 410 kts | 142° |
| 2026-04-22 18:32 | 51.44562 | 13.81898 | 25265 ft | 410 kts | 142° |
| 2026-04-22 18:32 | 51.42192 | 13.84449 | 25265 ft | 410 kts | 142° |
| 2026-04-22 18:32 | 51.39845 | 13.86969 | 25013 ft | 401 kts | 142° |
| 2026-04-22 18:32 | 51.37595 | 13.89379 | 24773 ft | 390 kts | 142° |
| 2026-04-22 18:33 | 51.35353 | 13.91780 | 24536 ft | 386 kts | 142° |
| 2026-04-22 18:33 | 51.33120 | 13.94174 | 24304 ft | 386 kts | 142° |
| 2026-04-22 18:33 | 51.30890 | 13.96563 | 24075 ft | 386 kts | 142° |
| 2026-04-22 18:33 | 51.28659 | 13.98951 | 23840 ft | 387 kts | 142° |
| 2026-04-22 18:34 | 51.26422 | 14.01340 | 23565 ft | 386 kts | 142° |
| 2026-04-22 18:34 | 51.24188 | 14.03722 | 23289 ft | 386 kts | 142° |
| 2026-04-22 18:34 | 51.21957 | 14.06098 | 23016 ft | 385 kts | 142° |
| 2026-04-22 18:34 | 51.19729 | 14.08467 | 22740 ft | 385 kts | 142° |
| 2026-04-22 18:35 | 51.17506 | 14.10829 | 22471 ft | 383 kts | 142° |
| 2026-04-22 18:35 | 51.15287 | 14.13182 | 22206 ft | 382 kts | 142° |
| 2026-04-22 18:35 | 51.13106 | 14.15494 | 21933 ft | 381 kts | 142° |
| 2026-04-22 18:35 | 51.10905 | 14.17824 | 21679 ft | 380 kts | 142° |
| 2026-04-22 18:36 | 51.08710 | 14.20145 | 21423 ft | 379 kts | 142° |
| 2026-04-22 18:36 | 51.06516 | 14.22463 | 21160 ft | 378 kts | 142° |
| 2026-04-22 18:36 | 51.04330 | 14.24769 | 20903 ft | 376 kts | 142° |
| 2026-04-22 18:36 | 51.02154 | 14.27063 | 20643 ft | 375 kts | 142° |
| 2026-04-22 18:37 | 50.99978 | 14.29355 | 20397 ft | 374 kts | 142° |
| 2026-04-22 18:37 | 50.97811 | 14.31635 | 20144 ft | 374 kts | 142° |
| 2026-04-22 18:37 | 50.96376 | 14.33141 | 19992 ft | 373 kts | 142° |
| 2026-04-22 18:37 | 50.93464 | 14.36046 | 19648 ft | 376 kts | 148° |
| 2026-04-22 18:38 | 50.91041 | 14.37639 | 19403 ft | 380 kts | 159° |
| 2026-04-22 18:38 | 50.88467 | 14.38667 | 19170 ft | 381 kts | 163° |
| 2026-04-22 18:38 | 50.85882 | 14.39587 | 18934 ft | 381 kts | 163° |
| 2026-04-22 18:39 | 50.80696 | 14.41353 | 18444 ft | 381 kts | 164° |
| 2026-04-22 18:39 | 50.78102 | 14.42227 | 18172 ft | 381 kts | 164° |
| 2026-04-22 18:39 | 50.75518 | 14.43099 | 17898 ft | 380 kts | 164° |
| 2026-04-22 18:39 | 50.72934 | 14.43973 | 17631 ft | 379 kts | 164° |
| 2026-04-22 18:40 | 50.70357 | 14.44844 | 17364 ft | 378 kts | 164° |
| 2026-04-22 18:40 | 50.67790 | 14.45713 | 17099 ft | 377 kts | 164° |
| 2026-04-22 18:40 | 50.65231 | 14.46579 | 16836 ft | 376 kts | 164° |
| 2026-04-22 18:40 | 50.62714 | 14.47431 | 16581 ft | 375 kts | 164° |
| 2026-04-22 18:41 | 50.60165 | 14.48292 | 16324 ft | 373 kts | 165° |
| 2026-04-22 18:41 | 50.57631 | 14.49148 | 16068 ft | 372 kts | 165° |
| 2026-04-22 18:41 | 50.55100 | 14.50002 | 15815 ft | 371 kts | 165° |
| 2026-04-22 18:41 | 50.52575 | 14.50853 | 15558 ft | 370 kts | 165° |
| 2026-04-22 18:42 | 50.50125 | 14.51678 | 15324 ft | 369 kts | 165° |
| 2026-04-22 18:42 | 50.47618 | 14.52520 | 15016 ft | 368 kts | 165° |
| 2026-04-22 18:42 | 50.45128 | 14.53356 | 14612 ft | 364 kts | 165° |
| 2026-04-22 18:42 | 50.42658 | 14.54185 | 14185 ft | 362 kts | 165° |
| 2026-04-22 18:43 | 50.40198 | 14.55009 | 13735 ft | 360 kts | 165° |
| 2026-04-22 18:43 | 50.37785 | 14.55817 | 13323 ft | 358 kts | 165° |
| 2026-04-22 18:43 | 50.35361 | 14.56628 | 12868 ft | 358 kts | 165° |
| 2026-04-22 18:43 | 50.32934 | 14.57439 | 12423 ft | 355 kts | 166° |
| 2026-04-22 18:44 | 50.30524 | 14.58243 | 11987 ft | 353 kts | 166° |
| 2026-04-22 18:44 | 50.28128 | 14.59042 | 11562 ft | 351 kts | 166° |
| 2026-04-22 18:44 | 50.25751 | 14.59834 | 11146 ft | 348 kts | 166° |
| 2026-04-22 18:44 | 50.23394 | 14.60618 | 10872 ft | 342 kts | 166° |
| 2026-04-22 18:45 | 50.21106 | 14.61377 | 10725 ft | 332 kts | 166° |
| 2026-04-22 18:45 | 50.18876 | 14.62117 | 10569 ft | 322 kts | 166° |
| 2026-04-22 18:45 | 50.16726 | 14.62829 | 10425 ft | 309 kts | 166° |
| 2026-04-22 18:45 | 50.14652 | 14.63517 | 10296 ft | 301 kts | 166° |
| 2026-04-22 18:46 | 50.12646 | 14.64182 | 10057 ft | 298 kts | 166° |
| 2026-04-22 18:46 | 50.10643 | 14.64950 | 9738 ft | 295 kts | 155° |
| 2026-04-22 18:46 | 50.08855 | 14.66400 | 9472 ft | 285 kts | 146° |
| 2026-04-22 18:46 | 50.07176 | 14.67976 | 9194 ft | 278 kts | 145° |
| 2026-04-22 18:47 | 50.05547 | 14.69532 | 8915 ft | 272 kts | 145° |
| 2026-04-22 18:47 | 50.03950 | 14.71062 | 8633 ft | 268 kts | 145° |
| 2026-04-22 18:47 | 50.02378 | 14.72572 | 8362 ft | 263 kts | 145° |
| 2026-04-22 18:47 | 50.00835 | 14.74058 | 8106 ft | 260 kts | 145° |
| 2026-04-22 18:48 | 49.99301 | 14.75538 | 7857 ft | 259 kts | 145° |
| 2026-04-22 18:48 | 49.97777 | 14.77013 | 7608 ft | 257 kts | 145° |
| 2026-04-22 18:48 | 49.96293 | 14.78452 | 7420 ft | 251 kts | 145° |
| 2026-04-22 18:48 | 49.94810 | 14.79890 | 7304 ft | 245 kts | 145° |
| 2026-04-22 18:49 | 49.93336 | 14.81093 | 7243 ft | 244 kts | 163° |
| 2026-04-22 18:49 | 49.91665 | 14.81127 | 7259 ft | 242 kts | 197° |
| 2026-04-22 18:49 | 49.90179 | 14.79920 | 7260 ft | 243 kts | 224° |
| 2026-04-22 18:49 | 49.89236 | 14.77787 | 7182 ft | 242 kts | 255° |
| 2026-04-22 18:50 | 49.89014 | 14.75226 | 6952 ft | 238 kts | 273° |
| 2026-04-22 18:50 | 49.89013 | 14.72683 | 6678 ft | 234 kts | 275° |
| 2026-04-22 18:50 | 49.89109 | 14.70223 | 6534 ft | 220 kts | 290° |
| 2026-04-22 18:50 | 49.89842 | 14.68273 | 6450 ft | 206 kts | 311° |
| 2026-04-22 18:51 | 49.90696 | 14.66489 | 6335 ft | 205 kts | 310° |
| 2026-04-22 18:51 | 49.91534 | 14.64701 | 6237 ft | 204 kts | 310° |
| 2026-04-22 18:51 | 49.92360 | 14.62955 | 6155 ft | 203 kts | 310° |
| 2026-04-22 18:51 | 49.93188 | 14.61215 | 6059 ft | 197 kts | 310° |
| 2026-04-22 18:52 | 49.93983 | 14.59550 | 5934 ft | 188 kts | 310° |
| 2026-04-22 18:52 | 49.94756 | 14.57934 | 5762 ft | 183 kts | 311° |
| 2026-04-22 18:52 | 49.95493 | 14.56394 | 5730 ft | 181 kts | 311° |
| 2026-04-22 18:52 | 49.96261 | 14.54796 | 5520 ft | 187 kts | 311° |
| 2026-04-22 18:53 | 49.97039 | 14.53171 | 5273 ft | 187 kts | 311° |
| 2026-04-22 18:53 | 49.97807 | 14.51567 | 5031 ft | 184 kts | 311° |
| 2026-04-22 18:53 | 49.98563 | 14.49988 | 4774 ft | 181 kts | 311° |
| 2026-04-22 18:53 | 49.99308 | 14.48434 | 4511 ft | 177 kts | 311° |
| 2026-04-22 18:54 | 50.00042 | 14.46905 | 4272 ft | 176 kts | 311° |
| 2026-04-22 18:54 | 50.00769 | 14.45388 | 4024 ft | 173 kts | 311° |
| 2026-04-22 18:54 | 50.01470 | 14.43928 | 3801 ft | 169 kts | 311° |
| 2026-04-22 18:54 | 50.02162 | 14.42485 | 3571 ft | 165 kts | 311° |
| 2026-04-22 18:55 | 50.02838 | 14.41078 | 3350 ft | 160 kts | 311° |
| 2026-04-22 18:55 | 50.03498 | 14.39703 | 3126 ft | 156 kts | 311° |
| 2026-04-22 18:55 | 50.04144 | 14.38360 | 2924 ft | 155 kts | 311° |
| 2026-04-22 18:55 | 50.04780 | 14.37036 | 2717 ft | 149 kts | 311° |
| 2026-04-22 18:56 | 50.05378 | 14.35790 | 2527 ft | 140 kts | 311° |
| 2026-04-22 18:56 | 50.05958 | 14.34586 | 2322 ft | 139 kts | 311° |
| 2026-04-22 18:56 | 50.06532 | 14.33391 | 2178 ft | 139 kts | 310° |
| 2026-04-22 18:56 | 50.07113 | 14.32182 | 1913 ft | 140 kts | 309° |
| 2026-04-22 18:57 | 50.07688 | 14.30983 | 1749 ft | 142 kts | 309° |
| 2026-04-22 18:57 | 50.08301 | 14.29716 | 1537 ft | 149 kts | 308° |
| 2026-04-22 18:57 | 50.08908 | 14.28444 | 1344 ft | 144 kts | 308° |
| 2026-04-22 18:57 | 50.09496 | 14.27235 | 1207 ft | 131 kts | 309° |
| 2026-04-22 18:58 | 50.09944 | 14.26312 | 1197 ft | 76 kts | 307° |
| 2026-04-22 18:58 | 50.10151 | 14.25885 | 1188 ft | 37 kts | 307° |
| 2026-04-22 18:58 | 50.10278 | 14.25701 | 1186 ft | 16 kts | 332° |
| 2026-04-22 18:58 | 50.10376 | 14.25659 | 1183 ft | 15 kts | 355° |
| 2026-04-22 18:59 | 50.10419 | 14.25661 | 1182 ft | 0 kts | 5° |
| 2026-04-22 18:59 | 50.10431 | 14.25663 | 1182 ft | 5 kts | 6° |
| 2026-04-22 18:59 | 50.10477 | 14.25708 | 1178 ft | 11 kts | 63° |
| 2026-04-22 19:00 | 50.10497 | 14.25835 | 1174 ft | 13 kts | 79° |
| 2026-04-22 19:00 | 50.10516 | 14.25985 | 1172 ft | 14 kts | 78° |
| 2026-04-22 19:00 | 50.10535 | 14.26134 | 1171 ft | 13 kts | 79° |
| 2026-04-22 19:00 | 50.10527 | 14.26260 | 1170 ft | 11 kts | 115° |
| 2026-04-22 19:01 | 50.10487 | 14.26354 | 1171 ft | 10 kts | 124° |
| 2026-04-22 19:01 | 50.10449 | 14.26440 | 1169 ft | 9 kts | 124° |
| 2026-04-22 19:01 | 50.10414 | 14.26518 | 1170 ft | 6 kts | 124° |
| 2026-04-22 19:01 | 50.10415 | 14.26558 | 1171 ft | 4 kts | 48° |
| 2026-04-22 19:02 | 50.10431 | 14.26579 | 1168 ft | 1 kts | 33° |
| 2026-04-22 19:02 | 50.10434 | 14.26582 | 1172 ft | 0 kts | 33° |
| 2026-04-22 19:02 | 50.10435 | 14.26583 | 1172 ft | 0 kts | 33° |